Time;durP1;ratioP1;P1;durP2;ratioP2;P2;SDS_P1;SDS_P2;PMS_P1;PMS_P2;Temp;Humidity;BMP_temperature;BMP_pressure;BME280_temperature;BME280_humidity;BME280_pressure;Samples;Min_cycle;Max_cycle;Signal;HPM_P1;HPM_P2
2022/12/18 00:02:07;;;;;;;28.75;7.85;;;;;;;;;;7392551;19;20058;-68
2022/12/18 00:04:32;;;;;;;11.35;5.55;;;;;;;;;;7394506;19;20002;-68
2022/12/18 00:06:58;;;;;;;13.52;7.28;;;;;;;;;;7394958;19;19994;-67
2022/12/18 00:09:23;;;;;;;15.50;5.30;;;;;;;;;;7393970;19;20455;-67
2022/12/18 00:11:48;;;;;;;12.82;7.70;;;;;;;;;;7394344;19;20475;-67
2022/12/18 00:14:14;;;;;;;8.88;5.88;;;;;;;;;;7393784;19;19995;-68
2022/12/18 00:16:42;;;;;;;12.60;6.10;;;;;;;;;;7394561;19;19994;-67
2022/12/18 00:19:10;;;;;;;16.70;8.18;;;;;;;;;;7394385;19;19999;-68
2022/12/18 00:21:35;;;;;;;10.27;5.35;;;;;;;;;;7394336;19;19999;-67
2022/12/18 00:24:01;;;;;;;13.27;6.28;;;;;;;;;;7393662;19;19994;-68
2022/12/18 00:26:29;;;;;;;12.05;5.80;;;;;;;;;;7393861;19;20562;-68
2022/12/18 00:28:58;;;;;;;5.55;4.30;;;;;;;;;;7394157;19;20014;-69
2022/12/18 00:31:24;;;;;;;10.48;5.15;;;;;;;;;;7393851;19;20509;-68
2022/12/18 00:33:50;;;;;;;10.48;6.22;;;;;;;;;;7389864;19;20327;-68
2022/12/18 00:36:19;;;;;;;9.77;5.25;;;;;;;;;;7393896;19;20014;-68
2022/12/18 00:38:44;;;;;;;11.68;6.30;;;;;;;;;;7394710;19;19998;-68
2022/12/18 00:41:12;;;;;;;12.25;7.18;;;;;;;;;;7393742;19;19991;-67
2022/12/18 00:43:39;;;;;;;9.07;4.50;;;;;;;;;;7391746;19;20387;-68
2022/12/18 00:46:05;;;;;;;7.68;5.32;;;;;;;;;;7391830;19;20019;-67
2022/12/18 00:48:30;;;;;;;7.07;4.10;;;;;;;;;;7393257;19;20001;-67
2022/12/18 00:50:56;;;;;;;8.20;3.28;;;;;;;;;;7395540;19;20061;-68
2022/12/18 00:53:21;;;;;;;11.60;5.82;;;;;;;;;;7389218;19;20015;-68
2022/12/18 00:55:46;;;;;;;10.13;6.25;;;;;;;;;;7396410;19;20415;-67
2022/12/18 00:58:14;;;;;;;16.75;4.40;;;;;;;;;;7391948;19;19986;-68
2022/12/18 01:00:39;;;;;;;10.23;4.90;;;;;;;;;;7392640;19;20037;-68
2022/12/18 01:03:05;;;;;;;5.07;3.60;;;;;;;;;;7391233;19;19998;-67
2022/12/18 01:05:31;;;;;;;5.63;3.13;;;;;;;;;;7390962;19;19999;-67
2022/12/18 01:07:57;;;;;;;6.45;3.67;;;;;;;;;;7393006;19;20020;-67
2022/12/18 01:10:23;;;;;;;9.02;5.32;;;;;;;;;;7391296;19;20014;-68
2022/12/18 01:12:48;;;;;;;7.35;3.80;;;;;;;;;;7389485;19;20002;-67
2022/12/18 01:15:15;;;;;;;8.90;4.60;;;;;;;;;;7391196;19;19994;-68
2022/12/18 01:17:40;;;;;;;6.60;4.40;;;;;;;;;;7392134;19;19998;-68
2022/12/18 01:20:07;;;;;;;7.93;4.88;;;;;;;;;;7392534;19;20070;-68
2022/12/18 01:22:32;;;;;;;8.98;4.50;;;;;;;;;;7389389;19;20002;-68
2022/12/18 01:24:57;;;;;;;11.32;6.68;;;;;;;;;;7392172;19;20015;-66
2022/12/18 01:27:23;;;;;;;9.02;5.47;;;;;;;;;;7390767;19;20090;-68
2022/12/18 01:29:49;;;;;;;8.25;3.95;;;;;;;;;;7389752;19;20002;-66
2022/12/18 01:32:14;;;;;;;4.57;3.92;;;;;;;;;;7391221;19;20006;-67
2022/12/18 01:34:39;;;;;;;6.82;4.10;;;;;;;;;;7391241;19;20469;-68
2022/12/18 01:37:05;;;;;;;10.70;6.00;;;;;;;;;;7392050;19;20001;-68
2022/12/18 01:39:34;;;;;;;9.35;3.80;;;;;;;;;;7391627;19;20356;-67
2022/12/18 01:42:02;;;;;;;8.20;5.65;;;;;;;;;;7391606;19;19999;-66
2022/12/18 01:45:05;;;;;;;6.70;4.22;;;;;;;;;;7390817;19;19994;-68
2022/12/18 01:47:38;;;;;;;5.28;4.43;;;;;;;;;;7392595;19;20007;-66
2022/12/18 01:50:21;;;;;;;19.20;5.30;;;;;;;;;;7390480;19;20050;-67
2022/12/18 01:52:52;;;;;;;11.07;4.82;;;;;;;;;;7386738;19;19998;-67
2022/12/18 01:55:21;;;;;;;5.78;3.13;;;;;;;;;;7391215;19;20010;-69
2022/12/18 01:57:47;;;;;;;9.35;4.38;;;;;;;;;;7391082;19;20002;-67
2022/12/18 02:00:16;;;;;;;4.90;4.38;;;;;;;;;;7391097;19;19991;-67
2022/12/18 02:02:46;;;;;;;10.88;5.55;;;;;;;;;;7388928;19;20074;-67
2022/12/18 02:05:39;;;;;;;14.55;4.10;;;;;;;;;;7389856;19;20066;-67
2022/12/18 02:08:13;;;;;;;8.23;4.50;;;;;;;;;;7389080;19;19995;-67
2022/12/18 02:11:10;;;;;;;7.85;3.35;;;;;;;;;;7389855;19;20031;-69
2022/12/18 02:14:12;;;;;;;9.20;4.57;;;;;;;;;;7387110;19;19998;-67
2022/12/18 02:16:43;;;;;;;5.88;2.90;;;;;;;;;;7391281;19;20014;-67
2022/12/18 02:19:39;;;;;;;5.90;3.63;;;;;;;;;;7390981;19;20377;-69
2022/12/18 02:22:20;;;;;;;3.97;3.65;;;;;;;;;;7387797;19;20009;-69
2022/12/18 02:25:10;;;;;;;7.80;4.32;;;;;;;;;;7388658;19;20357;-67
2022/12/18 02:27:37;;;;;;;5.57;2.17;;;;;;;;;;7388623;19;19991;-68
2022/12/18 02:30:04;;;;;;;14.27;3.95;;;;;;;;;;7389347;19;20058;-68
2022/12/18 02:32:35;;;;;;;9.50;3.75;;;;;;;;;;7389328;19;19995;-68
2022/12/18 02:35:07;;;;;;;3.80;3.25;;;;;;;;;;7390613;19;20598;-68
2022/12/18 02:37:34;;;;;;;3.38;3.03;;;;;;;;;;7390439;19;19995;-68
2022/12/18 02:40:02;;;;;;;7.13;4.05;;;;;;;;;;7389985;19;20001;-67
2022/12/18 02:42:27;;;;;;;7.65;4.93;;;;;;;;;;7388826;19;20002;-68
2022/12/18 02:44:53;;;;;;;7.15;4.57;;;;;;;;;;7389392;19;20005;-67
2022/12/18 02:47:21;;;;;;;4.22;2.58;;;;;;;;;;7389866;19;19998;-66
2022/12/18 02:49:57;;;;;;;9.88;4.50;;;;;;;;;;7388883;19;19991;-67
2022/12/18 02:52:32;;;;;;;5.43;2.72;;;;;;;;;;7387181;19;20002;-68
2022/12/18 02:55:00;;;;;;;5.72;3.85;;;;;;;;;;7394041;19;20346;-68
2022/12/18 02:57:53;;;;;;;14.70;5.18;;;;;;;;;;7389808;19;20542;-68
2022/12/18 03:00:30;;;;;;;8.35;3.90;;;;;;;;;;7389789;19;20009;-68
2022/12/18 03:03:07;;;;;;;6.90;5.40;;;;;;;;;;7386141;19;20078;-70
2022/12/18 03:05:41;;;;;;;9.13;4.03;;;;;;;;;;7388574;19;20009;-69
2022/12/18 03:08:17;;;;;;;7.55;2.35;;;;;;;;;;7389708;19;19998;-69
2022/12/18 03:10:50;;;;;;;6.20;3.85;;;;;;;;;;7387886;19;20006;-69
2022/12/18 03:13:24;;;;;;;3.90;2.38;;;;;;;;;;7388535;19;20333;-69
2022/12/18 03:15:53;;;;;;;10.32;4.75;;;;;;;;;;7390475;19;20337;-69
2022/12/18 03:18:42;;;;;;;6.00;3.60;;;;;;;;;;7392705;19;20456;-69
2022/12/18 03:21:10;;;;;;;7.53;1.90;;;;;;;;;;7396004;19;20007;-69
2022/12/18 03:23:44;;;;;;;5.93;2.63;;;;;;;;;;7398278;19;20468;-69
2022/12/18 03:26:12;;;;;;;11.68;4.85;;;;;;;;;;7396471;19;20009;-70
2022/12/18 03:28:41;;;;;;;8.65;4.55;;;;;;;;;;7396404;19;19999;-70
2022/12/18 03:31:11;;;;;;;14.30;2.90;;;;;;;;;;7396168;19;20002;-70
2022/12/18 03:33:53;;;;;;;4.65;2.60;;;;;;;;;;7392446;19;20006;-70
2022/12/18 03:36:18;;;;;;;9.52;6.45;;;;;;;;;;7394694;19;20468;-69
2022/12/18 03:38:44;;;;;;;7.20;3.75;;;;;;;;;;7395148;19;20006;-69
2022/12/18 03:41:27;;;;;;;12.00;4.63;;;;;;;;;;7395769;19;20481;-69
2022/12/18 03:43:59;;;;;;;3.75;2.88;;;;;;;;;;7393085;19;20006;-69
2022/12/18 03:46:37;;;;;;;7.78;4.28;;;;;;;;;;7396090;19;20014;-70
2022/12/18 03:49:13;;;;;;;9.95;3.58;;;;;;;;;;7398235;19;19998;-69
2022/12/18 03:51:54;;;;;;;8.02;3.08;;;;;;;;;;7395772;19;19995;-70
2022/12/18 03:54:20;;;;;;;13.02;3.03;;;;;;;;;;7395643;19;19995;-68
2022/12/18 03:56:52;;;;;;;8.32;3.65;;;;;;;;;;7395283;19;19998;-68
2022/12/18 03:59:18;;;;;;;2.72;2.03;;;;;;;;;;7396319;19;20357;-70
2022/12/18 04:01:50;;;;;;;4.90;2.65;;;;;;;;;;7396013;19;20050;-69
2022/12/18 04:04:18;;;;;;;6.13;4.45;;;;;;;;;;7392848;19;19999;-68
2022/12/18 04:06:46;;;;;;;3.42;2.60;;;;;;;;;;7395045;19;20005;-70
2022/12/18 04:09:12;;;;;;;14.30;5.35;;;;;;;;;;7394450;19;19995;-69
2022/12/18 04:11:38;;;;;;;8.25;3.92;;;;;;;;;;7395489;19;20095;-68
2022/12/18 04:14:04;;;;;;;11.38;4.95;;;;;;;;;;7392316;19;20049;-68
2022/12/18 04:16:29;;;;;;;4.07;3.17;;;;;;;;;;7395110;19;20002;-68
2022/12/18 04:18:54;;;;;;;6.20;4.72;;;;;;;;;;7394754;19;19998;-68
2022/12/18 04:21:20;;;;;;;10.27;4.68;;;;;;;;;;7394724;19;20031;-68
2022/12/18 04:23:46;;;;;;;5.00;4.35;;;;;;;;;;7391289;19;19994;-70
2022/12/18 04:26:11;;;;;;;7.63;4.63;;;;;;;;;;7394882;19;20010;-68
2022/12/18 04:28:36;;;;;;;3.47;3.17;;;;;;;;;;7393565;19;20475;-69
2022/12/18 04:31:02;;;;;;;2.15;1.95;;;;;;;;;;7394304;19;20003;-70
2022/12/18 04:33:27;;;;;;;7.63;3.78;;;;;;;;;;7391060;19;19998;-68
2022/12/18 04:35:53;;;;;;;8.95;5.30;;;;;;;;;;7392460;19;20395;-69
2022/12/18 04:38:18;;;;;;;11.10;3.80;;;;;;;;;;7394832;19;19999;-69
2022/12/18 04:40:43;;;;;;;6.47;3.50;;;;;;;;;;7393738;19;20451;-69
2022/12/18 04:43:09;;;;;;;6.00;3.72;;;;;;;;;;7394692;19;20010;-70
2022/12/18 04:45:34;;;;;;;4.72;2.85;;;;;;;;;;7392061;19;20019;-70
2022/12/18 04:48:01;;;;;;;5.35;2.72;;;;;;;;;;7393859;19;20083;-70
2022/12/18 04:50:27;;;;;;;5.18;3.15;;;;;;;;;;7392158;19;20100;-69
2022/12/18 04:52:52;;;;;;;7.50;4.97;;;;;;;;;;7390848;19;20519;-69
2022/12/18 04:55:18;;;;;;;11.18;3.88;;;;;;;;;;7393712;19;20003;-69
2022/12/18 04:57:43;;;;;;;5.28;3.58;;;;;;;;;;7397772;19;20023;-69
2022/12/18 05:00:09;;;;;;;5.60;2.95;;;;;;;;;;7393252;19;19995;-69
2022/12/18 05:02:34;;;;;;;4.55;2.17;;;;;;;;;;7392416;19;19995;-68
2022/12/18 05:05:00;;;;;;;8.68;3.45;;;;;;;;;;7393325;19;20456;-68
2022/12/18 05:07:25;;;;;;;9.55;5.07;;;;;;;;;;7393335;19;20115;-70
2022/12/18 05:09:50;;;;;;;8.43;3.50;;;;;;;;;;7392357;19;20009;-69
2022/12/18 05:12:16;;;;;;;7.50;4.63;;;;;;;;;;7391274;19;20031;-69
2022/12/18 05:14:41;;;;;;;8.48;4.45;;;;;;;;;;7392306;19;20030;-69
2022/12/18 05:17:06;;;;;;;4.68;3.72;;;;;;;;;;7393056;19;19994;-68
2022/12/18 05:19:32;;;;;;;12.93;4.10;;;;;;;;;;7391450;19;20002;-69
2022/12/18 05:21:57;;;;;;;5.10;3.03;;;;;;;;;;7392526;19;20054;-69
2022/12/18 05:24:22;;;;;;;9.90;3.95;;;;;;;;;;7392100;19;19995;-69
2022/12/18 05:26:48;;;;;;;5.72;3.17;;;;;;;;;;7392519;19;19995;-68
2022/12/18 05:29:13;;;;;;;4.35;3.70;;;;;;;;;;7391922;19;20031;-68
2022/12/18 05:31:39;;;;;;;11.45;4.18;;;;;;;;;;7392288;19;20336;-69
2022/12/18 05:34:04;;;;;;;7.03;3.85;;;;;;;;;;7390000;19;20103;-68
2022/12/18 05:36:30;;;;;;;6.47;4.32;;;;;;;;;;7392465;19;19998;-68
2022/12/18 05:38:55;;;;;;;20.13;4.15;;;;;;;;;;7391901;19;19994;-70
2022/12/18 05:41:21;;;;;;;4.57;3.25;;;;;;;;;;7388203;19;20061;-69
2022/12/18 05:43:46;;;;;;;11.55;4.78;;;;;;;;;;7389883;19;20018;-68
2022/12/18 05:46:14;;;;;;;12.68;6.68;;;;;;;;;;7394019;19;20010;-69
2022/12/18 05:48:39;;;;;;;4.28;3.00;;;;;;;;;;7391826;19;20002;-70
2022/12/18 05:51:08;;;;;;;7.45;4.28;;;;;;;;;;7392922;19;20352;-69
2022/12/18 05:53:34;;;;;;;8.30;4.88;;;;;;;;;;7390539;19;20007;-70
2022/12/18 05:56:02;;;;;;;13.65;3.85;;;;;;;;;;7391893;19;20340;-70
2022/12/18 05:58:27;;;;;;;10.65;4.65;;;;;;;;;;7390069;19;20031;-70
2022/12/18 06:00:52;;;;;;;7.13;4.07;;;;;;;;;;7391789;19;20058;-69
2022/12/18 06:03:18;;;;;;;33.33;5.13;;;;;;;;;;7393813;19;20381;-68
2022/12/18 06:05:44;;;;;;;7.63;4.03;;;;;;;;;;7391673;19;20006;-69
2022/12/18 06:08:11;;;;;;;8.75;4.25;;;;;;;;;;7391092;19;20006;-70
2022/12/18 06:10:36;;;;;;;3.65;2.83;;;;;;;;;;7389061;19;20309;-68
2022/12/18 06:13:02;;;;;;;11.48;3.22;;;;;;;;;;7388449;19;20018;-68
2022/12/18 06:15:27;;;;;;;9.30;3.38;;;;;;;;;;7389544;19;20038;-68
2022/12/18 06:17:53;;;;;;;5.25;3.95;;;;;;;;;;7390889;19;19998;-68
2022/12/18 06:20:18;;;;;;;6.05;3.75;;;;;;;;;;7392132;19;20034;-69
2022/12/18 06:22:44;;;;;;;9.85;4.80;;;;;;;;;;7389924;19;20474;-70
2022/12/18 06:25:09;;;;;;;6.05;4.78;;;;;;;;;;7391086;19;20331;-69
2022/12/18 06:27:35;;;;;;;9.30;3.72;;;;;;;;;;7390623;19;20002;-68
2022/12/18 06:30:00;;;;;;;5.20;3.00;;;;;;;;;;7389513;19;20087;-68
2022/12/18 06:32:26;;;;;;;6.25;4.45;;;;;;;;;;7389728;19;19999;-68
2022/12/18 06:34:53;;;;;;;4.50;2.95;;;;;;;;;;7388744;19;20002;-70
2022/12/18 06:37:18;;;;;;;7.72;4.38;;;;;;;;;;7390284;19;20002;-68
2022/12/18 06:39:43;;;;;;;5.97;3.72;;;;;;;;;;7390324;19;19991;-68
2022/12/18 06:42:09;;;;;;;6.75;4.20;;;;;;;;;;7389694;19;20054;-69
2022/12/18 06:44:34;;;;;;;9.13;5.05;;;;;;;;;;7389859;19;20080;-70
2022/12/18 06:46:59;;;;;;;6.45;3.95;;;;;;;;;;7389200;19;20084;-69
2022/12/18 06:49:24;;;;;;;10.75;3.13;;;;;;;;;;7389675;19;19998;-69
2022/12/18 06:51:50;;;;;;;8.02;4.32;;;;;;;;;;7394447;19;20066;-68
2022/12/18 06:54:15;;;;;;;9.95;5.07;;;;;;;;;;7394229;19;20150;-68
2022/12/18 06:56:40;;;;;;;3.95;3.22;;;;;;;;;;7397731;19;19999;-70
2022/12/18 06:59:06;;;;;;;5.00;3.70;;;;;;;;;;7397455;19;19995;-68
2022/12/18 07:01:31;;;;;;;11.60;5.15;;;;;;;;;;7397242;19;20006;-68
2022/12/18 07:03:57;;;;;;;12.70;7.60;;;;;;;;;;7393317;19;19991;-68
2022/12/18 07:06:25;;;;;;;7.18;4.78;;;;;;;;;;7398034;19;20356;-68
2022/12/18 07:08:52;;;;;;;16.92;4.95;;;;;;;;;;7397056;19;20003;-68
2022/12/18 07:11:18;;;;;;;9.57;4.38;;;;;;;;;;7395389;19;19999;-69
2022/12/18 07:13:45;;;;;;;16.15;4.90;;;;;;;;;;7397163;19;19999;-68
2022/12/18 07:16:19;;;;;;;21.38;6.00;;;;;;;;;;7396674;19;20007;-70
2022/12/18 07:18:44;;;;;;;8.38;4.22;;;;;;;;;;7396759;19;20057;-70
2022/12/18 07:21:13;;;;;;;17.27;5.15;;;;;;;;;;7395728;19;20594;-69
2022/12/18 07:23:39;;;;;;;12.32;4.95;;;;;;;;;;7394149;19;20470;-69
2022/12/18 07:26:10;;;;;;;18.85;4.80;;;;;;;;;;7396377;19;20062;-68
2022/12/18 07:28:36;;;;;;;;;;;;;;;;;;7396941;19;19999;-71
2022/12/18 07:31:06;;;;;;;5.28;2.50;;;;;;;;;;7393856;19;19939;-69
2022/12/18 07:33:32;;;;;;;5.22;3.45;;;;;;;;;;7392193;19;20003;-70
2022/12/18 07:35:59;;;;;;;7.95;5.35;;;;;;;;;;7395838;19;20077;-69
2022/12/18 07:38:24;;;;;;;5.32;3.33;;;;;;;;;;7396134;19;20012;-69
2022/12/18 07:40:50;;;;;;;12.38;6.22;;;;;;;;;;7395987;19;19991;-69
2022/12/18 07:43:15;;;;;;;9.95;5.72;;;;;;;;;;7393825;19;20023;-70
2022/12/18 07:45:42;;;;;;;8.93;5.10;;;;;;;;;;7396105;19;20002;-69
2022/12/18 07:48:07;;;;;;;9.73;5.55;;;;;;;;;;7397103;19;20018;-68
2022/12/18 07:50:33;;;;;;;13.95;5.70;;;;;;;;;;7393617;19;20006;-68
2022/12/18 07:52:58;;;;;;;9.68;4.43;;;;;;;;;;7397564;19;19994;-70
2022/12/18 07:55:23;;;;;;;13.35;6.82;;;;;;;;;;7395622;19;20020;-69
2022/12/18 07:57:48;;;;;;;13.98;6.85;;;;;;;;;;7395542;19;19995;-68
2022/12/18 08:00:14;;;;;;;9.40;6.03;;;;;;;;;;7396415;19;19995;-68
2022/12/18 08:02:39;;;;;;;18.65;6.88;;;;;;;;;;7394605;19;20042;-69
2022/12/18 08:05:05;;;;;;;14.52;6.35;;;;;;;;;;7393574;19;20009;-70
2022/12/18 08:07:30;;;;;;;16.55;6.70;;;;;;;;;;7396212;19;20533;-68
2022/12/18 08:09:56;;;;;;;13.85;7.30;;;;;;;;;;7398316;19;19998;-68
2022/12/18 08:12:21;;;;;;;17.20;9.80;;;;;;;;;;7394238;19;19999;-69
2022/12/18 08:14:46;;;;;;;11.98;7.95;;;;;;;;;;7395585;19;20002;-69
2022/12/18 08:17:11;;;;;;;14.45;7.80;;;;;;;;;;7395320;19;20006;-69
2022/12/18 08:19:37;;;;;;;17.73;10.27;;;;;;;;;;7395065;19;20024;-70
2022/12/18 08:22:02;;;;;;;17.60;6.50;;;;;;;;;;7394663;19;20003;-70
2022/12/18 08:24:27;;;;;;;14.35;7.13;;;;;;;;;;7394825;19;19991;-70
2022/12/18 08:26:53;;;;;;;15.18;6.10;;;;;;;;;;7397399;19;19998;-71
2022/12/18 08:29:18;;;;;;;13.15;6.68;;;;;;;;;;7393907;19;20029;-70
2022/12/18 08:31:43;;;;;;;16.10;8.70;;;;;;;;;;7394491;19;20475;-68
2022/12/18 08:34:09;;;;;;;19.77;7.38;;;;;;;;;;7391989;19;19999;-69
2022/12/18 08:36:35;;;;;;;15.85;7.95;;;;;;;;;;7393169;19;20508;-68
2022/12/18 08:39:00;;;;;;;15.68;8.43;;;;;;;;;;7393411;19;20452;-68
2022/12/18 08:41:26;;;;;;;16.45;7.95;;;;;;;;;;7394149;19;20015;-70
2022/12/18 08:46:41;;;;;;;15.35;6.68;;;;;;;;;;7394765;19;20036;-70
2022/12/18 08:49:08;;;;;;;20.33;8.68;;;;;;;;;;7393632;19;20400;-69
2022/12/18 08:51:33;;;;;;;21.08;8.95;;;;;;;;;;7392346;19;20006;-69
2022/12/18 08:53:59;;;;;;;24.27;8.23;;;;;;;;;;7389834;19;20353;-69
2022/12/18 08:56:24;;;;;;;20.67;8.73;;;;;;;;;;7393366;19;20062;-69
2022/12/18 08:58:54;;;;;;;14.80;6.68;;;;;;;;;;7393601;19;20016;-69
2022/12/18 09:01:20;;;;;;;13.18;8.07;;;;;;;;;;7393695;19;20055;-69
2022/12/18 09:03:45;;;;;;;24.70;8.75;;;;;;;;;;7390008;19;20019;-68
2022/12/18 09:06:15;;;;;;;11.50;6.53;;;;;;;;;;7392434;19;20002;-67
2022/12/18 09:08:41;;;;;;;18.23;7.82;;;;;;;;;;7394911;19;20021;-68
2022/12/18 09:11:12;;;;;;;13.23;6.15;;;;;;;;;;7389415;19;19999;-69
2022/12/18 09:13:37;;;;;;;15.40;7.53;;;;;;;;;;7391717;19;19999;-69
2022/12/18 09:16:03;;;;;;;17.45;8.52;;;;;;;;;;7393048;19;20002;-68
2022/12/18 09:18:28;;;;;;;22.55;8.93;;;;;;;;;;7392791;19;20002;-69
2022/12/18 09:20:53;;;;;;;19.13;8.10;;;;;;;;;;7392216;19;20050;-69
2022/12/18 09:23:22;;;;;;;18.27;8.27;;;;;;;;;;7390976;19;20002;-68
2022/12/18 09:25:48;;;;;;;20.83;8.15;;;;;;;;;;7392840;19;19998;-68
2022/12/18 09:28:18;;;;;;;16.73;8.02;;;;;;;;;;7393372;19;20015;-68
2022/12/18 09:30:49;;;;;;;23.45;9.70;;;;;;;;;;7391933;19;20006;-67
2022/12/18 09:33:15;;;;;;;17.90;8.30;;;;;;;;;;7390788;19;20005;-67
2022/12/18 09:35:42;;;;;;;18.45;9.82;;;;;;;;;;7393064;19;20001;-69
2022/12/18 09:38:10;;;;;;;22.60;9.10;;;;;;;;;;7392396;19;19998;-67
2022/12/18 09:40:46;;;;;;;18.60;9.05;;;;;;;;;;7394184;19;19994;-68
2022/12/18 09:43:19;;;;;;;19.92;9.07;;;;;;;;;;7389398;19;20344;-68
2022/12/18 09:45:50;;;;;;;23.40;9.73;;;;;;;;;;7391906;19;19987;-68
2022/12/18 09:48:25;;;;;;;29.80;10.93;;;;;;;;;;7391511;19;20001;-68
2022/12/18 09:50:53;;;;;;;20.48;9.65;;;;;;;;;;7390487;19;20360;-69
2022/12/18 09:53:26;;;;;;;23.95;9.38;;;;;;;;;;7391779;19;19998;-68
2022/12/18 09:55:54;;;;;;;18.73;7.68;;;;;;;;;;7392471;19;19995;-69
2022/12/18 09:58:44;;;;;;;21.40;9.02;;;;;;;;;;7391572;19;20431;-70
2022/12/18 10:01:11;;;;;;;14.55;6.80;;;;;;;;;;7391524;19;20019;-69
2022/12/18 10:03:37;;;;;;;20.48;8.98;;;;;;;;;;7389498;19;19998;-69
2022/12/18 10:06:13;;;;;;;20.80;9.23;;;;;;;;;;7391182;19;19991;-68
2022/12/18 10:08:57;;;;;;;19.58;10.38;;;;;;;;;;7389460;19;19997;-69
2022/12/18 10:11:39;;;;;;;24.60;10.73;;;;;;;;;;7389595;19;20106;-70
2022/12/18 10:14:34;;;;;;;18.90;8.98;;;;;;;;;;7390196;19;20418;-70
2022/12/18 10:17:23;;;;;;;20.20;9.85;;;;;;;;;;7391058;19;19994;-69
2022/12/18 10:19:54;;;;;;;19.88;10.02;;;;;;;;;;7391030;19;19998;-69
2022/12/18 10:22:36;;;;;;;14.38;7.43;;;;;;;;;;7390710;19;20460;-69
2022/12/18 10:25:29;;;;;;;15.10;8.57;;;;;;;;;;7390899;19;20300;-69
2022/12/18 10:28:07;;;;;;;21.55;8.75;;;;;;;;;;7394274;19;20464;-69
2022/12/18 10:30:32;;;;;;;21.38;9.93;;;;;;;;;;7396492;19;20015;-70
2022/12/18 10:33:02;;;;;;;20.92;10.02;;;;;;;;;;7399513;19;20006;-70
2022/12/18 10:35:27;;;;;;;19.75;9.38;;;;;;;;;;7398188;19;20026;-68
2022/12/18 10:38:17;;;;;;;23.10;10.95;;;;;;;;;;7397885;19;20003;-69
2022/12/18 10:41:00;;;;;;;19.52;8.95;;;;;;;;;;7397962;19;20005;-69
2022/12/18 10:43:33;;;;;;;26.63;9.77;;;;;;;;;;7395736;19;20026;-69
2022/12/18 10:46:15;;;;;;;16.63;8.18;;;;;;;;;;7396302;19;20351;-70
2022/12/18 10:48:49;;;;;;;16.02;8.93;;;;;;;;;;7397723;19;20003;-69
2022/12/18 10:51:30;;;;;;;20.65;9.13;;;;;;;;;;7397575;19;20006;-70
2022/12/18 10:54:04;;;;;;;20.55;9.50;;;;;;;;;;7395349;19;20003;-71
2022/12/18 10:56:33;;;;;;;23.95;11.45;;;;;;;;;;7397400;19;20009;-70
2022/12/18 10:59:07;;;;;;;21.52;9.00;;;;;;;;;;7397086;19;20456;-69
2022/12/18 11:01:56;;;;;;;15.30;8.70;;;;;;;;;;7396979;19;20006;-69
2022/12/18 11:04:24;;;;;;;18.58;8.85;;;;;;;;;;7395262;19;20002;-70
2022/12/18 11:07:00;;;;;;;17.17;8.55;;;;;;;;;;7397142;19;20356;-71
2022/12/18 11:09:33;;;;;;;20.48;10.68;;;;;;;;;;7396091;19;20030;-70
2022/12/18 11:12:03;;;;;;;23.23;9.80;;;;;;;;;;7396758;19;20002;-69
2022/12/18 11:14:32;;;;;;;22.98;11.40;;;;;;;;;;7393782;19;20040;-71
2022/12/18 11:16:58;;;;;;;26.02;11.77;;;;;;;;;;7396603;19;19995;-69
2022/12/18 11:19:34;;;;;;;25.13;10.02;;;;;;;;;;7396906;19;20032;-69
2022/12/18 11:22:01;;;;;;;20.35;10.40;;;;;;;;;;7397198;19;20059;-70
2022/12/18 11:24:30;;;;;;;20.65;11.32;;;;;;;;;;7392176;19;20483;-69
2022/12/18 11:27:00;;;;;;;28.85;12.27;;;;;;;;;;7396338;19;20003;-69
2022/12/18 11:29:37;;;;;;;20.63;10.05;;;;;;;;;;7395900;19;20003;-69
2022/12/18 11:32:14;;;;;;;18.88;10.20;;;;;;;;;;7396526;19;21052;-70
2022/12/18 11:34:45;;;;;;;22.25;8.50;;;;;;;;;;7392778;19;20019;-69
2022/12/18 11:37:12;;;;;;;26.88;12.20;;;;;;;;;;7396544;19;20531;-69
2022/12/18 11:39:59;;;;;;;22.55;9.88;;;;;;;;;;7393602;19;20372;-67
2022/12/18 11:42:49;;;;;;;25.35;11.80;;;;;;;;;;7393947;19;20003;-69
2022/12/18 11:45:25;;;;;;;26.52;12.05;;;;;;;;;;7396238;19;20106;-69
2022/12/18 11:48:19;;;;;;;19.10;9.30;;;;;;;;;;7393798;19;20002;-70
2022/12/18 11:50:50;;;;;;;27.27;10.95;;;;;;;;;;7392555;19;19999;-69
2022/12/18 11:53:16;;;;;;;28.02;10.80;;;;;;;;;;7393611;19;20007;-69
2022/12/18 11:55:57;;;;;;;25.58;11.73;;;;;;;;;;7395798;19;20366;-70
2022/12/18 11:58:45;;;;;;;28.70;12.00;;;;;;;;;;7395758;19;20002;-69
2022/12/18 12:01:25;;;;;;;27.48;10.82;;;;;;;;;;7395306;19;20463;-70
2022/12/18 12:03:53;;;;;;;21.80;10.13;;;;;;;;;;7394867;19;20393;-69
2022/12/18 12:06:46;;;;;;;24.88;10.82;;;;;;;;;;7399713;19;19999;-68
2022/12/18 12:09:31;;;;;;;28.02;11.88;;;;;;;;;;7394296;19;20041;-70
2022/12/18 12:12:12;;;;;;;22.23;11.23;;;;;;;;;;7395147;19;19998;-68
2022/12/18 12:14:40;;;;;;;27.33;11.70;;;;;;;;;;7391839;19;19999;-70
2022/12/18 12:17:24;;;;;;;26.88;11.80;;;;;;;;;;7394953;19;20058;-69
2022/12/18 12:20:02;;;;;;;27.08;10.43;;;;;;;;;;7394703;19;19998;-68
2022/12/18 12:22:39;;;;;;;23.88;12.05;;;;;;;;;;7394796;19;20002;-68
2022/12/18 12:25:27;;;;;;;24.58;11.32;;;;;;;;;;7394503;19;19998;-69
2022/12/18 12:28:11;;;;;;;22.48;9.70;;;;;;;;;;7394503;19;20001;-69
2022/12/18 12:30:45;;;;;;;27.63;11.88;;;;;;;;;;7392829;19;19999;-69
2022/12/18 12:33:40;;;;;;;27.70;10.82;;;;;;;;;;7392612;19;20347;-69
2022/12/18 12:36:15;;;;;;;27.27;11.02;;;;;;;;;;7394500;19;20348;-70
2022/12/18 12:38:50;;;;;;;23.35;10.77;;;;;;;;;;7393922;19;19999;-69
2022/12/18 12:44:08;;;;;;;23.92;9.38;;;;;;;;;;7391490;19;20016;-70
2022/12/18 12:46:38;;;;;;;20.88;9.57;;;;;;;;;;7393541;19;19999;-69
2022/12/18 12:49:09;;;;;;;25.07;9.90;;;;;;;;;;7392704;19;19999;-70
2022/12/18 12:51:38;;;;;;;25.15;12.07;;;;;;;;;;7393069;19;19995;-70
2022/12/18 12:54:15;;;;;;;23.40;11.52;;;;;;;;;;7391475;19;20058;-69
2022/12/18 12:57:01;;;;;;;29.52;12.38;;;;;;;;;;7393524;19;20001;-70
2022/12/18 12:59:31;;;;;;;29.70;11.68;;;;;;;;;;7391778;19;19999;-70
2022/12/18 13:02:11;;;;;;;20.85;10.48;;;;;;;;;;7397305;19;19986;-69
2022/12/18 13:04:47;;;;;;;14.68;7.72;;;;;;;;;;7390670;19;19999;-69
2022/12/18 13:07:15;;;;;;;26.75;9.38;;;;;;;;;;7392803;19;20500;-71
2022/12/18 13:10:13;;;;;;;21.73;11.48;;;;;;;;;;7392341;19;20016;-70
2022/12/18 13:13:00;;;;;;;22.17;10.70;;;;;;;;;;7392605;19;20099;-71
2022/12/18 13:15:29;;;;;;;22.77;9.60;;;;;;;;;;7393011;19;20460;-71
2022/12/18 13:18:16;;;;;;;26.40;12.15;;;;;;;;;;7392759;19;20003;-70
2022/12/18 13:21:06;;;;;;;26.48;10.27;;;;;;;;;;7392520;19;20004;-70
2022/12/18 13:23:36;;;;;;;25.33;10.95;;;;;;;;;;7388375;19;20028;-70
2022/12/18 13:26:10;;;;;;;17.88;9.98;;;;;;;;;;7392560;19;20002;-70
2022/12/18 13:28:45;;;;;;;27.17;10.15;;;;;;;;;;7392040;19;20464;-70
2022/12/18 13:31:10;;;;;;;32.53;11.25;;;;;;;;;;7393372;19;20009;-70
2022/12/18 13:33:43;;;;;;;22.48;9.50;;;;;;;;;;7390974;19;20388;-69
2022/12/18 13:36:32;;;;;;;19.77;8.80;;;;;;;;;;7392102;19;20007;-69
2022/12/18 13:39:17;;;;;;;31.50;11.45;;;;;;;;;;7396101;19;20002;-69
2022/12/18 13:41:44;;;;;;;25.63;10.95;;;;;;;;;;7390888;19;20405;-70
2022/12/18 13:44:35;;;;;;;22.52;10.35;;;;;;;;;;7389873;19;20067;-70
2022/12/18 13:47:03;;;;;;;27.27;7.50;;;;;;;;;;7390722;19;20419;-70
2022/12/18 13:49:42;;;;;;;21.92;10.57;;;;;;;;;;7390820;19;20006;-69
2022/12/18 13:52:36;;;;;;;25.27;9.80;;;;;;;;;;7391236;19;20005;-71
2022/12/18 13:55:06;;;;;;;25.33;10.10;;;;;;;;;;7390410;19;20100;-70
2022/12/18 13:57:34;;;;;;;26.02;12.00;;;;;;;;;;7391411;19;20471;-70
2022/12/18 14:00:17;;;;;;;21.98;9.48;;;;;;;;;;7392013;19;20080;-70
2022/12/18 14:02:45;;;;;;;26.70;11.65;;;;;;;;;;7388571;19;20012;-69
2022/12/18 14:05:28;;;;;;;17.90;8.27;;;;;;;;;;7391641;19;20388;-70
2022/12/18 14:07:54;;;;;;;19.23;10.65;;;;;;;;;;7391181;19;20460;-70
2022/12/18 14:10:21;;;;;;;24.13;10.23;;;;;;;;;;7388614;19;19995;-70
2022/12/18 14:12:56;;;;;;;24.23;7.95;;;;;;;;;;7390009;19;20336;-69
2022/12/18 14:15:24;;;;;;;20.90;9.90;;;;;;;;;;7391009;19;20037;-71
2022/12/18 14:17:58;;;;;;;26.60;10.90;;;;;;;;;;7391204;19;20031;-70
2022/12/18 14:20:25;;;;;;;28.95;11.77;;;;;;;;;;7389277;19;20006;-70
2022/12/18 14:22:50;;;;;;;22.77;10.55;;;;;;;;;;7389626;19;20023;-69
2022/12/18 14:25:22;;;;;;;36.55;12.35;;;;;;;;;;7390209;19;20326;-69
2022/12/18 14:27:51;;;;;;;23.08;10.65;;;;;;;;;;7390469;19;20002;-70
2022/12/18 14:30:28;;;;;;;32.40;12.43;;;;;;;;;;7390041;19;20006;-71
2022/12/18 14:33:06;;;;;;;24.35;9.73;;;;;;;;;;7389154;19;20007;-72
2022/12/18 14:35:33;;;;;;;27.13;10.20;;;;;;;;;;7389836;19;19999;-71
2022/12/18 14:38:21;;;;;;;26.27;10.60;;;;;;;;;;7390202;19;19995;-70
2022/12/18 14:40:47;;;;;;;23.30;11.10;;;;;;;;;;7390290;19;19991;-70
2022/12/18 14:43:12;;;;;;;20.45;9.95;;;;;;;;;;7388859;19;20104;-69
2022/12/18 14:45:43;;;;;;;31.83;11.27;;;;;;;;;;7390271;19;19999;-70
2022/12/18 14:48:15;;;;;;;26.27;11.65;;;;;;;;;;7390254;19;20005;-68
2022/12/18 14:50:41;;;;;;;27.95;11.30;;;;;;;;;;7388358;19;20002;-70
2022/12/18 14:53:34;;;;;;;30.48;11.15;;;;;;;;;;7391954;19;20030;-69
2022/12/18 14:55:59;;;;;;;37.83;14.45;;;;;;;;;;7388281;19;19995;-70
2022/12/18 14:58:25;;;;;;;25.10;11.02;;;;;;;;;;7389671;19;19995;-70
2022/12/18 15:00:50;;;;;;;21.05;11.25;;;;;;;;;;7389423;19;20031;-69